Star Care — 9V9352 — position and weather

sailwx.info

Track history (hours):
 
Tides and Currents Weather Stations Pressure Air Temp Water Temp Dewpoint Dewpoint Depression Visibility Wind Speed Wind Dir Waves Ship Positions

Star Care

Last reported at 2017-Dec-14 17:32 UTC. Time now 2017-Dec-18 14:55 UTC.
Position N 28°47' W 116°05'.

Length 163 m; draft 7.4 m.

Type: Ship. MMSI: 566341000.

Date/timePositionNaut miles runAvg speedWind from/ knotsBaromVisibWave heightAir tempDewpointWater temp
2017-Dec-14 17:32N 28°47' W 116°05'221.7
2017-Dec-14 17:28N 28°49' W 116°05'1021.5
2017-Dec-14 17:00N 28°58' W 116°10'1121.5
2017-Dec-14 16:29N 29°08' W 116°14'1021.2
2017-Dec-14 16:00N 29°18' W 116°18'2120.9
2017-Dec-14 14:59N 29°37' W 116°27'1020.7
2017-Dec-14 14:30N 29°47' W 116°31'4820.5
2017-Dec-14 12:09N 30°32' W 116°51'1420.9
2017-Dec-14 11:29N 30°45' W 116°57'1620.7
2017-Dec-14 10:42N 30°60' W 117°04'420.5
2017-Dec-14 10:30N 31°04' W 117°06'1020.9
2017-Dec-14 10:00N 31°13' W 117°10'1120.9
2017-Dec-14 09:30N 31°23' W 117°15'1421.1
2017-Dec-14 08:52N 31°36' W 117°20'821.1
2017-Dec-14 08:29N 31°43' W 117°23'1120.9
2017-Dec-14 07:58N 31°53' W 117°28'920.7
2017-Dec-14 07:30N 32°02' W 117°32'1020.5
2017-Dec-14 07:00N 32°12' W 117°37'1020.7
2017-Dec-14 06:30N 32°21' W 117°41'1020.4
2017-Dec-14 06:00N 32°31' W 117°45'1019.2
2017-Dec-14 05:30N 32°40' W 117°50'1020.1
2017-Dec-14 05:00N 32°49' W 117°54'1121.2
2017-Dec-14 04:30N 32°59' W 117°58'1121.6
2017-Dec-14 04:00N 33°09' W 118°02'1020.4
2017-Dec-14 03:30N 33°19' W 118°06'918.2
2017-Dec-14 03:00N 33°28' W 118°10'816.0
2017-Dec-14 02:31N 33°35' W 118°13'611.3
2017-Dec-14 02:01N 33°41' W 118°12'3 6.5
2017-Dec-14 01:31N 33°44' W 118°13'0 0.5
2017-Dec-14 00:59N 33°44' W 118°14'0 0.1
2017-Dec-14 00:23N 33°44' W 118°14'0 0.0
2017-Dec-13 23:47N 33°44' W 118°14'0 0.0
2017-Dec-13 23:23N 33°44' W 118°14'0 0.0
2017-Dec-13 21:53N 33°44' W 118°14'0 0.1
2017-Dec-13 21:29N 33°44' W 118°14'0 0.1
2017-Dec-13 20:59N 33°44' W 118°14'0 0.0
2017-Dec-13 20:29N 33°44' W 118°14'0 0.0
2017-Dec-13 19:59N 33°44' W 118°14'0 0.2
2017-Dec-13 19:30N 33°44' W 118°14'0 0.1
2017-Dec-13 19:00N 33°44' W 118°14'3 6.0
2017-Dec-13 18:30N 33°42' W 118°11'3 6.0
2017-Dec-13 18:00N 33°39' W 118°11'4 8.2
2017-Dec-13 17:30N 33°36' W 118°15'5 9.2
2017-Dec-13 17:00N 33°36' W 118°21'713.0
2017-Dec-13 16:30N 33°40' W 118°28'816.3
2017-Dec-13 16:00N 33°44' W 118°36'917.7
2017-Dec-13 15:30N 33°48' W 118°45'917.7
2017-Dec-13 14:58N 33°53' W 118°55'817.3
2017-Dec-13 14:30N 33°57' W 119°04'916.8
2017-Dec-13 13:58N 34°02' W 119°13'510.7
2017-Dec-13 13:30N 34°06' W 119°14'3 6.2
2017-Dec-13 13:01N 34°09' W 119°12'0 0.0
2017-Dec-13 10:53N 34°09' W 119°12'0 0.0
2017-Dec-13 09:50N 34°09' W 119°12'0 0.0
2017-Dec-13 08:53N 34°09' W 119°12'0 0.0
2017-Dec-13 08:11N 34°09' W 119°12'0 0.0
2017-Dec-13 07:53N 34°09' W 119°12'0 0.0
2017-Dec-13 07:29N 34°09' W 119°12'0 0.0
2017-Dec-13 04:47N 34°09' W 119°12'0 0.0
2017-Dec-13 02:32N 34°09' W 119°12'0 0.0
2017-Dec-13 02:20N 34°09' W 119°12'0 0.0
2017-Dec-12 23:47N 34°09' W 119°12'0 0.0
2017-Dec-12 14:56N 34°09' W 119°12'0 0.0
2017-Dec-12 14:23N 34°09' W 119°12'0 0.0
2017-Dec-12 12:50N 34°09' W 119°12'0 0.0
2017-Dec-12 11:02N 34°09' W 119°12'0 0.0
2017-Dec-12 10:35N 34°09' W 119°12'0 0.0
2017-Dec-12 10:17N 34°09' W 119°12'0 0.0
2017-Dec-12 09:47N 34°09' W 119°12'0 0.0
2017-Dec-12 09:29N 34°09' W 119°12'0 0.0
2017-Dec-12 08:50N 34°09' W 119°12'0 0.1
2017-Dec-12 08:26N 34°09' W 119°12'0 0.0
2017-Dec-12 06:11N 34°09' W 119°12'0 0.0
2017-Dec-12 05:59N 34°09' W 119°12'0 0.0
2017-Dec-12 04:50N 34°09' W 119°12'0 0.0
2017-Dec-12 01:26N 34°09' W 119°12'0 0.0
2017-Dec-11 22:20N 34°09' W 119°12'0 0.0
2017-Dec-11 18:53N 34°09' W 119°12'0 0.0
2017-Dec-11 13:59N 34°09' W 119°12'0 0.0
2017-Dec-11 13:29N 34°09' W 119°12'0 0.0
2017-Dec-11 10:23N 34°09' W 119°12'0 0.0
2017-Dec-11 04:14N 34°09' W 119°12'0 0.0
2017-Dec-11 01:17N 34°09' W 119°12'0 0.0
2017-Dec-10 20:32N 34°09' W 119°12'0 0.0
2017-Dec-10 20:23N 34°09' W 119°12'2 4.7
2017-Dec-10 19:59N 34°08' W 119°14'3 5.1
2017-Dec-10 19:29N 34°05' W 119°14'510.4
2017-Dec-10 18:59N 34°01' W 119°10'510.3
2017-Dec-10 18:27N 33°56' W 119°10'0 0.2
2017-Dec-10 17:59N 33°56' W 119°10'0 0.2
2017-Dec-10 17:30N 33°56' W 119°09'3 5.4
2017-Dec-10 17:00N 33°54' W 119°08'4 6.9
2017-Dec-10 16:23N 33°50' W 119°04'410.0
2017-Dec-10 16:00N 33°47' W 119°02'612.6
2017-Dec-10 15:30N 33°42' W 118°58'1 2.4
2017-Dec-10 15:00N 33°43' W 118°58'815.7
2017-Dec-10 14:30N 33°37' W 118°52'816.9
2017-Dec-10 14:00N 33°30' W 118°47'816.8
2017-Dec-10 13:30N 33°23' W 118°41'2416.8
2017-Dec-10 12:04N 33°04' W 118°23'117.2
2017-Dec-10 12:00N 33°03' W 118°23'816.6
2017-Dec-10 11:30N 32°56' W 118°17'1616.2
2017-Dec-10 10:32N 32°43' W 118°06'311.4
2017-Dec-10 10:18N 32°41' W 118°05'0 0.4
2017-Dec-10 09:38N 32°41' W 118°05'0 1.0
2017-Dec-10 09:29N 32°41' W 118°05'0 0.6
2017-Dec-10 08:56N 32°41' W 118°04'0 0.5
2017-Dec-10 08:29N 32°41' W 118°04'1 1.5
2017-Dec-10 08:00N 32°40' W 118°03'2 4.3
2017-Dec-10 07:30N 32°39' W 118°02'612.1
2017-Dec-10 07:00N 32°34' W 117°57'917.1
2017-Dec-10 06:30N 32°27' W 117°52'917.5
2017-Dec-10 06:00N 32°19' W 117°48'  
Track history (hours):
 
Tides and Currents Weather Stations Pressure Air Temp Water Temp Dewpoint Dewpoint Depression Visibility Wind Speed Wind Dir Waves Ship Positions

Star Care

Last reported at 2017-Dec-14 17:32 UTC. Time now 2017-Dec-18 14:55 UTC.
Position N 28°47' W 116°05'.

Length 163 m; draft 7.4 m.

Type: Ship. MMSI: 566341000.

Date/timePositionNaut miles runAvg speedWind from/ knotsBaromVisibWave heightAir tempDewpointWater temp
2017-Dec-14 17:32N 28°47' W 116°05'221.7
2017-Dec-14 17:28N 28°49' W 116°05'1021.5
2017-Dec-14 17:00N 28°58' W 116°10'1121.5
2017-Dec-14 16:29N 29°08' W 116°14'1021.2
2017-Dec-14 16:00N 29°18' W 116°18'2120.9
2017-Dec-14 14:59N 29°37' W 116°27'1020.7
2017-Dec-14 14:30N 29°47' W 116°31'4820.5
2017-Dec-14 12:09N 30°32' W 116°51'1420.9
2017-Dec-14 11:29N 30°45' W 116°57'1620.7
2017-Dec-14 10:42N 30°60' W 117°04'420.5
2017-Dec-14 10:30N 31°04' W 117°06'1020.9
2017-Dec-14 10:00N 31°13' W 117°10'1120.9
2017-Dec-14 09:30N 31°23' W 117°15'1421.1
2017-Dec-14 08:52N 31°36' W 117°20'821.1
2017-Dec-14 08:29N 31°43' W 117°23'1120.9
2017-Dec-14 07:58N 31°53' W 117°28'920.7
2017-Dec-14 07:30N 32°02' W 117°32'1020.5
2017-Dec-14 07:00N 32°12' W 117°37'1020.7
2017-Dec-14 06:30N 32°21' W 117°41'1020.4
2017-Dec-14 06:00N 32°31' W 117°45'1019.2
2017-Dec-14 05:30N 32°40' W 117°50'1020.1
2017-Dec-14 05:00N 32°49' W 117°54'1121.2
2017-Dec-14 04:30N 32°59' W 117°58'1121.6
2017-Dec-14 04:00N 33°09' W 118°02'1020.4
2017-Dec-14 03:30N 33°19' W 118°06'918.2
2017-Dec-14 03:00N 33°28' W 118°10'816.0
2017-Dec-14 02:31N 33°35' W 118°13'611.3
2017-Dec-14 02:01N 33°41' W 118°12'3 6.5
2017-Dec-14 01:31N 33°44' W 118°13'0 0.5
2017-Dec-14 00:59N 33°44' W 118°14'0 0.1
2017-Dec-14 00:23N 33°44' W 118°14'0 0.0
2017-Dec-13 23:47N 33°44' W 118°14'0 0.0
2017-Dec-13 23:23N 33°44' W 118°14'0 0.0
2017-Dec-13 21:53N 33°44' W 118°14'0 0.1
2017-Dec-13 21:29N 33°44' W 118°14'0 0.1
2017-Dec-13 20:59N 33°44' W 118°14'0 0.0
2017-Dec-13 20:29N 33°44' W 118°14'0 0.0
2017-Dec-13 19:59N 33°44' W 118°14'0 0.2
2017-Dec-13 19:30N 33°44' W 118°14'0 0.1
2017-Dec-13 19:00N 33°44' W 118°14'3 6.0
2017-Dec-13 18:30N 33°42' W 118°11'3 6.0
2017-Dec-13 18:00N 33°39' W 118°11'4 8.2
2017-Dec-13 17:30N 33°36' W 118°15'5 9.2
2017-Dec-13 17:00N 33°36' W 118°21'713.0
2017-Dec-13 16:30N 33°40' W 118°28'816.3
2017-Dec-13 16:00N 33°44' W 118°36'917.7
2017-Dec-13 15:30N 33°48' W 118°45'917.7
2017-Dec-13 14:58N 33°53' W 118°55'817.3
2017-Dec-13 14:30N 33°57' W 119°04'916.8
2017-Dec-13 13:58N 34°02' W 119°13'510.7
2017-Dec-13 13:30N 34°06' W 119°14'3 6.2
2017-Dec-13 13:01N 34°09' W 119°12'0 0.0
2017-Dec-13 10:53N 34°09' W 119°12'0 0.0
2017-Dec-13 09:50N 34°09' W 119°12'0 0.0
2017-Dec-13 08:53N 34°09' W 119°12'0 0.0
2017-Dec-13 08:11N 34°09' W 119°12'0 0.0
2017-Dec-13 07:53N 34°09' W 119°12'0 0.0
2017-Dec-13 07:29N 34°09' W 119°12'0 0.0
2017-Dec-13 04:47N 34°09' W 119°12'0 0.0
2017-Dec-13 02:32N 34°09' W 119°12'0 0.0
2017-Dec-13 02:20N 34°09' W 119°12'0 0.0
2017-Dec-12 23:47N 34°09' W 119°12'0 0.0
2017-Dec-12 14:56N 34°09' W 119°12'0 0.0
2017-Dec-12 14:23N 34°09' W 119°12'0 0.0
2017-Dec-12 12:50N 34°09' W 119°12'0 0.0
2017-Dec-12 11:02N 34°09' W 119°12'0 0.0
2017-Dec-12 10:35N 34°09' W 119°12'0 0.0
2017-Dec-12 10:17N 34°09' W 119°12'0 0.0
2017-Dec-12 09:47N 34°09' W 119°12'0 0.0
2017-Dec-12 09:29N 34°09' W 119°12'0 0.0
2017-Dec-12 08:50N 34°09' W 119°12'0 0.1
2017-Dec-12 08:26N 34°09' W 119°12'0 0.0
2017-Dec-12 06:11N 34°09' W 119°12'0 0.0
2017-Dec-12 05:59N 34°09' W 119°12'0 0.0
2017-Dec-12 04:50N 34°09' W 119°12'0 0.0
2017-Dec-12 01:26N 34°09' W 119°12'0 0.0
2017-Dec-11 22:20N 34°09' W 119°12'0 0.0
2017-Dec-11 18:53N 34°09' W 119°12'0 0.0
2017-Dec-11 13:59N 34°09' W 119°12'0 0.0
2017-Dec-11 13:29N 34°09' W 119°12'0 0.0
2017-Dec-11 10:23N 34°09' W 119°12'0 0.0
2017-Dec-11 04:14N 34°09' W 119°12'0 0.0
2017-Dec-11 01:17N 34°09' W 119°12'0 0.0
2017-Dec-10 20:32N 34°09' W 119°12'0 0.0
2017-Dec-10 20:23N 34°09' W 119°12'2 4.7
2017-Dec-10 19:59N 34°08' W 119°14'3 5.1
2017-Dec-10 19:29N 34°05' W 119°14'510.4
2017-Dec-10 18:59N 34°01' W 119°10'510.3
2017-Dec-10 18:27N 33°56' W 119°10'0 0.2
2017-Dec-10 17:59N 33°56' W 119°10'0 0.2
2017-Dec-10 17:30N 33°56' W 119°09'3 5.4
2017-Dec-10 17:00N 33°54' W 119°08'4 6.9
2017-Dec-10 16:23N 33°50' W 119°04'410.0
2017-Dec-10 16:00N 33°47' W 119°02'612.6
2017-Dec-10 15:30N 33°42' W 118°58'1 2.4
2017-Dec-10 15:00N 33°43' W 118°58'815.7
2017-Dec-10 14:30N 33°37' W 118°52'816.9
2017-Dec-10 14:00N 33°30' W 118°47'816.8
2017-Dec-10 13:30N 33°23' W 118°41'2416.8
2017-Dec-10 12:04N 33°04' W 118°23'117.2
2017-Dec-10 12:00N 33°03' W 118°23'816.6
2017-Dec-10 11:30N 32°56' W 118°17'1616.2
2017-Dec-10 10:32N 32°43' W 118°06'311.4
2017-Dec-10 10:18N 32°41' W 118°05'0 0.4
2017-Dec-10 09:38N 32°41' W 118°05'0 1.0
2017-Dec-10 09:29N 32°41' W 118°05'0 0.6
2017-Dec-10 08:56N 32°41' W 118°04'0 0.5
2017-Dec-10 08:29N 32°41' W 118°04'1 1.5
2017-Dec-10 08:00N 32°40' W 118°03'2 4.3
2017-Dec-10 07:30N 32°39' W 118°02'612.1
2017-Dec-10 07:00N 32°34' W 117°57'917.1
2017-Dec-10 06:30N 32°27' W 117°52'917.5
2017-Dec-10 06:00N 32°19' W 117°48'  

Dump ship's entire track history